Terminal Aerodrome Forecast
Issued by NWS

Current Version | Previous Version | Text Only | Print | Product List | Glossary On
Versions: 1 2 3 4 5 6 7 8 9 10 11 12 13 14 15
000
FTUS42 KTBW 301738
TAFLAL
TAF
KLAL 301738Z 3018/3118 17010KT P6SM SCT025 OVC100
     FM301900 16009KT P6SM VCTS SCT030CB BKN250
     FM310300 10005KT P6SM VCSH SCT020 BKN050
     FM310600 VRB03KT P6SM FEW010 SCT020 BKN100
     FM311400 16005KT P6SM VCTS SCT025CB BKN250=

USA.gov is the U.S. government's official web portal to all federal, state and local government web resources and services.